sensor_id;sensor_type;location;lat;lon;timestamp;P1;durP1;ratioP1;P2;durP2;ratioP2
68300;SDS011;55146;47.468;18.806;2024-03-02T00:01:50;37.37;;;20.53;;
68300;SDS011;55146;47.468;18.806;2024-03-02T00:04:15;35.07;;;21.27;;
68300;SDS011;55146;47.468;18.806;2024-03-02T00:06:42;35.75;;;20.40;;
68300;SDS011;55146;47.468;18.806;2024-03-02T00:09:08;33.40;;;21.07;;
68300;SDS011;55146;47.468;18.806;2024-03-02T00:11:37;36.75;;;22.23;;
68300;SDS011;55146;47.468;18.806;2024-03-02T00:14:02;32.37;;;19.97;;
68300;SDS011;55146;47.468;18.806;2024-03-02T00:16:31;37.15;;;21.77;;
68300;SDS011;55146;47.468;18.806;2024-03-02T00:19:03;31.63;;;20.03;;
68300;SDS011;55146;47.468;18.806;2024-03-02T00:21:31;32.08;;;21.62;;
68300;SDS011;55146;47.468;18.806;2024-03-02T00:23:57;36.70;;;22.62;;
68300;SDS011;55146;47.468;18.806;2024-03-02T00:26:23;37.95;;;21.17;;
68300;SDS011;55146;47.468;18.806;2024-03-02T00:28:48;33.30;;;20.43;;
68300;SDS011;55146;47.468;18.806;2024-03-02T00:31:15;34.53;;;20.45;;
68300;SDS011;55146;47.468;18.806;2024-03-02T00:33:45;36.33;;;20.77;;
68300;SDS011;55146;47.468;18.806;2024-03-02T00:36:26;36.97;;;20.58;;
68300;SDS011;55146;47.468;18.806;2024-03-02T00:38:53;36.00;;;21.10;;
68300;SDS011;55146;47.468;18.806;2024-03-02T00:41:27;35.13;;;20.73;;
68300;SDS011;55146;47.468;18.806;2024-03-02T00:43:57;33.67;;;21.62;;
68300;SDS011;55146;47.468;18.806;2024-03-02T00:46:34;35.33;;;20.57;;
68300;SDS011;55146;47.468;18.806;2024-03-02T00:49:00;35.53;;;20.85;;
68300;SDS011;55146;47.468;18.806;2024-03-02T00:51:29;36.10;;;20.67;;
68300;SDS011;55146;47.468;18.806;2024-03-02T00:53:57;35.58;;;20.52;;
68300;SDS011;55146;47.468;18.806;2024-03-02T00:56:24;33.47;;;20.85;;
68300;SDS011;55146;47.468;18.806;2024-03-02T00:58:50;35.00;;;20.83;;
68300;SDS011;55146;47.468;18.806;2024-03-02T01:01:16;31.55;;;20.25;;
68300;SDS011;55146;47.468;18.806;2024-03-02T01:03:42;36.35;;;20.02;;
68300;SDS011;55146;47.468;18.806;2024-03-02T01:06:08;31.13;;;20.10;;
68300;SDS011;55146;47.468;18.806;2024-03-02T01:08:34;32.92;;;19.60;;
68300;SDS011;55146;47.468;18.806;2024-03-02T01:11:00;33.22;;;20.70;;
68300;SDS011;55146;47.468;18.806;2024-03-02T01:13:26;33.30;;;19.77;;
68300;SDS011;55146;47.468;18.806;2024-03-02T01:15:51;32.63;;;19.95;;
68300;SDS011;55146;47.468;18.806;2024-03-02T01:18:16;36.00;;;20.43;;
68300;SDS011;55146;47.468;18.806;2024-03-02T01:20:42;33.43;;;20.77;;
68300;SDS011;55146;47.468;18.806;2024-03-02T01:23:07;36.27;;;19.27;;
68300;SDS011;55146;47.468;18.806;2024-03-02T01:25:33;31.27;;;19.87;;
68300;SDS011;55146;47.468;18.806;2024-03-02T01:27:58;31.90;;;19.53;;
68300;SDS011;55146;47.468;18.806;2024-03-02T01:30:23;37.40;;;19.83;;
68300;SDS011;55146;47.468;18.806;2024-03-02T01:32:48;32.20;;;19.27;;
68300;SDS011;55146;47.468;18.806;2024-03-02T01:35:14;36.63;;;20.00;;
68300;SDS011;55146;47.468;18.806;2024-03-02T01:37:40;32.30;;;19.37;;
68300;SDS011;55146;47.468;18.806;2024-03-02T01:40:06;33.35;;;18.90;;
68300;SDS011;55146;47.468;18.806;2024-03-02T01:42:35;32.05;;;20.20;;
68300;SDS011;55146;47.468;18.806;2024-03-02T01:45:07;30.55;;;18.23;;
68300;SDS011;55146;47.468;18.806;2024-03-02T01:47:34;34.85;;;20.02;;
68300;SDS011;55146;47.468;18.806;2024-03-02T01:49:59;27.40;;;17.07;;
68300;SDS011;55146;47.468;18.806;2024-03-02T01:52:25;30.73;;;17.95;;
68300;SDS011;55146;47.468;18.806;2024-03-02T01:54:51;27.70;;;16.53;;
68300;SDS011;55146;47.468;18.806;2024-03-02T01:57:16;29.60;;;17.17;;
68300;SDS011;55146;47.468;18.806;2024-03-02T01:59:42;30.77;;;17.80;;
68300;SDS011;55146;47.468;18.806;2024-03-02T02:02:08;30.02;;;16.55;;
68300;SDS011;55146;47.468;18.806;2024-03-02T02:04:34;30.47;;;18.70;;
68300;SDS011;55146;47.468;18.806;2024-03-02T02:06:59;28.00;;;16.03;;
68300;SDS011;55146;47.468;18.806;2024-03-02T02:09:25;30.98;;;17.75;;
68300;SDS011;55146;47.468;18.806;2024-03-02T02:11:50;36.53;;;19.37;;
68300;SDS011;55146;47.468;18.806;2024-03-02T02:14:16;29.50;;;18.10;;
68300;SDS011;55146;47.468;18.806;2024-03-02T02:16:42;35.17;;;19.80;;
68300;SDS011;55146;47.468;18.806;2024-03-02T02:19:07;28.20;;;17.47;;
68300;SDS011;55146;47.468;18.806;2024-03-02T02:21:33;31.73;;;17.85;;
68300;SDS011;55146;47.468;18.806;2024-03-02T02:23:58;30.80;;;18.70;;
68300;SDS011;55146;47.468;18.806;2024-03-02T02:26:23;34.87;;;18.43;;
68300;SDS011;55146;47.468;18.806;2024-03-02T02:28:49;29.00;;;17.98;;
68300;SDS011;55146;47.468;18.806;2024-03-02T02:31:15;30.50;;;17.60;;
68300;SDS011;55146;47.468;18.806;2024-03-02T02:33:40;30.50;;;18.27;;
68300;SDS011;55146;47.468;18.806;2024-03-02T02:36:06;33.58;;;18.92;;
68300;SDS011;55146;47.468;18.806;2024-03-02T02:38:32;32.87;;;18.03;;
68300;SDS011;55146;47.468;18.806;2024-03-02T02:41:01;30.10;;;17.60;;
68300;SDS011;55146;47.468;18.806;2024-03-02T02:43:27;35.27;;;18.00;;
68300;SDS011;55146;47.468;18.806;2024-03-02T02:45:52;35.33;;;19.20;;
68300;SDS011;55146;47.468;18.806;2024-03-02T02:48:18;30.53;;;18.80;;
68300;SDS011;55146;47.468;18.806;2024-03-02T02:50:43;32.88;;;18.73;;
68300;SDS011;55146;47.468;18.806;2024-03-02T02:53:08;34.23;;;19.90;;
68300;SDS011;55146;47.468;18.806;2024-03-02T02:55:35;32.07;;;19.47;;
68300;SDS011;55146;47.468;18.806;2024-03-02T02:58:05;30.02;;;18.40;;
68300;SDS011;55146;47.468;18.806;2024-03-02T03:00:31;32.92;;;17.77;;
68300;SDS011;55146;47.468;18.806;2024-03-02T03:02:56;35.03;;;19.77;;
68300;SDS011;55146;47.468;18.806;2024-03-02T03:05:21;32.60;;;18.83;;
68300;SDS011;55146;47.468;18.806;2024-03-02T03:07:47;29.77;;;18.07;;
68300;SDS011;55146;47.468;18.806;2024-03-02T03:10:14;33.08;;;17.92;;
68300;SDS011;55146;47.468;18.806;2024-03-02T03:12:40;30.50;;;18.77;;
68300;SDS011;55146;47.468;18.806;2024-03-02T03:15:07;32.08;;;20.00;;
68300;SDS011;55146;47.468;18.806;2024-03-02T03:17:33;36.60;;;19.30;;
68300;SDS011;55146;47.468;18.806;2024-03-02T03:19:59;31.37;;;19.48;;
68300;SDS011;55146;47.468;18.806;2024-03-02T03:22:26;29.87;;;17.77;;
68300;SDS011;55146;47.468;18.806;2024-03-02T03:24:51;30.00;;;18.80;;
68300;SDS011;55146;47.468;18.806;2024-03-02T03:27:17;33.03;;;19.17;;
68300;SDS011;55146;47.468;18.806;2024-03-02T03:29:42;33.20;;;17.83;;
68300;SDS011;55146;47.468;18.806;2024-03-02T03:32:07;32.60;;;19.40;;
68300;SDS011;55146;47.468;18.806;2024-03-02T03:34:33;29.87;;;18.47;;
68300;SDS011;55146;47.468;18.806;2024-03-02T03:36:59;33.67;;;18.37;;
68300;SDS011;55146;47.468;18.806;2024-03-02T03:39:24;30.30;;;18.27;;
68300;SDS011;55146;47.468;18.806;2024-03-02T03:41:50;33.07;;;19.23;;
68300;SDS011;55146;47.468;18.806;2024-03-02T03:44:16;33.88;;;19.42;;
68300;SDS011;55146;47.468;18.806;2024-03-02T03:46:41;34.30;;;20.27;;
68300;SDS011;55146;47.468;18.806;2024-03-02T03:49:07;31.33;;;19.67;;
68300;SDS011;55146;47.468;18.806;2024-03-02T03:51:33;35.57;;;19.27;;
68300;SDS011;55146;47.468;18.806;2024-03-02T03:53:58;33.78;;;19.23;;
68300;SDS011;55146;47.468;18.806;2024-03-02T03:56:24;33.42;;;19.50;;
68300;SDS011;55146;47.468;18.806;2024-03-02T03:58:50;31.10;;;17.93;;
68300;SDS011;55146;47.468;18.806;2024-03-02T04:01:15;35.37;;;19.03;;
68300;SDS011;55146;47.468;18.806;2024-03-02T04:03:40;31.93;;;19.30;;
68300;SDS011;55146;47.468;18.806;2024-03-02T04:06:06;35.65;;;19.27;;
68300;SDS011;55146;47.468;18.806;2024-03-02T04:08:31;33.93;;;19.43;;
68300;SDS011;55146;47.468;18.806;2024-03-02T04:10:56;35.87;;;19.87;;
68300;SDS011;55146;47.468;18.806;2024-03-02T04:13:22;34.60;;;19.03;;
68300;SDS011;55146;47.468;18.806;2024-03-02T04:15:47;34.60;;;20.80;;
68300;SDS011;55146;47.468;18.806;2024-03-02T04:18:12;33.07;;;19.23;;
68300;SDS011;55146;47.468;18.806;2024-03-02T04:20:38;30.33;;;18.70;;
68300;SDS011;55146;47.468;18.806;2024-03-02T04:23:03;33.90;;;20.20;;
68300;SDS011;55146;47.468;18.806;2024-03-02T04:25:29;34.47;;;20.93;;
68300;SDS011;55146;47.468;18.806;2024-03-02T04:27:54;34.30;;;19.57;;
68300;SDS011;55146;47.468;18.806;2024-03-02T04:30:19;35.33;;;20.23;;
68300;SDS011;55146;47.468;18.806;2024-03-02T04:32:45;33.67;;;20.67;;
68300;SDS011;55146;47.468;18.806;2024-03-02T04:35:11;39.92;;;20.80;;
68300;SDS011;55146;47.468;18.806;2024-03-02T04:37:37;36.78;;;19.45;;
68300;SDS011;55146;47.468;18.806;2024-03-02T04:40:03;37.93;;;21.57;;
68300;SDS011;55146;47.468;18.806;2024-03-02T04:42:33;39.70;;;19.33;;
68300;SDS011;55146;47.468;18.806;2024-03-02T04:44:58;35.87;;;19.70;;
68300;SDS011;55146;47.468;18.806;2024-03-02T04:47:24;35.40;;;20.12;;
68300;SDS011;55146;47.468;18.806;2024-03-02T04:49:49;35.07;;;19.30;;
68300;SDS011;55146;47.468;18.806;2024-03-02T04:52:15;36.47;;;21.42;;
68300;SDS011;55146;47.468;18.806;2024-03-02T04:54:41;40.80;;;20.83;;
68300;SDS011;55146;47.468;18.806;2024-03-02T04:57:25;31.15;;;18.85;;
68300;SDS011;55146;47.468;18.806;2024-03-02T04:59:50;34.27;;;19.73;;
68300;SDS011;55146;47.468;18.806;2024-03-02T05:02:15;36.00;;;20.80;;
68300;SDS011;55146;47.468;18.806;2024-03-02T05:04:41;34.33;;;19.53;;
68300;SDS011;55146;47.468;18.806;2024-03-02T05:07:06;37.00;;;20.08;;
68300;SDS011;55146;47.468;18.806;2024-03-02T05:09:32;33.30;;;19.97;;
68300;SDS011;55146;47.468;18.806;2024-03-02T05:11:57;35.57;;;20.87;;
68300;SDS011;55146;47.468;18.806;2024-03-02T05:14:48;36.05;;;20.37;;
68300;SDS011;55146;47.468;18.806;2024-03-02T05:17:13;36.80;;;21.13;;
68300;SDS011;55146;47.468;18.806;2024-03-02T05:19:38;37.97;;;22.40;;
68300;SDS011;55146;47.468;18.806;2024-03-02T05:22:04;37.53;;;20.87;;
68300;SDS011;55146;47.468;18.806;2024-03-02T05:24:29;35.87;;;20.43;;
68300;SDS011;55146;47.468;18.806;2024-03-02T05:26:54;34.97;;;20.93;;
68300;SDS011;55146;47.468;18.806;2024-03-02T05:29:20;36.65;;;19.62;;
68300;SDS011;55146;47.468;18.806;2024-03-02T05:31:46;35.10;;;19.80;;
68300;SDS011;55146;47.468;18.806;2024-03-02T05:34:11;36.87;;;21.70;;
68300;SDS011;55146;47.468;18.806;2024-03-02T05:36:36;43.28;;;23.20;;
68300;SDS011;55146;47.468;18.806;2024-03-02T05:39:04;36.03;;;21.53;;
68300;SDS011;55146;47.468;18.806;2024-03-02T05:41:31;39.50;;;22.67;;
68300;SDS011;55146;47.468;18.806;2024-03-02T05:43:57;46.88;;;22.92;;
68300;SDS011;55146;47.468;18.806;2024-03-02T05:46:22;33.73;;;20.27;;
68300;SDS011;55146;47.468;18.806;2024-03-02T05:48:47;39.63;;;20.93;;
68300;SDS011;55146;47.468;18.806;2024-03-02T05:51:13;39.73;;;21.27;;
68300;SDS011;55146;47.468;18.806;2024-03-02T05:53:38;38.23;;;21.67;;
68300;SDS011;55146;47.468;18.806;2024-03-02T05:56:04;42.47;;;24.73;;
68300;SDS011;55146;47.468;18.806;2024-03-02T05:58:30;48.30;;;24.98;;
68300;SDS011;55146;47.468;18.806;2024-03-02T06:01:18;41.10;;;22.65;;
68300;SDS011;55146;47.468;18.806;2024-03-02T06:03:44;43.10;;;22.87;;
68300;SDS011;55146;47.468;18.806;2024-03-02T06:06:09;39.80;;;20.37;;
68300;SDS011;55146;47.468;18.806;2024-03-02T06:08:35;37.03;;;20.48;;
68300;SDS011;55146;47.468;18.806;2024-03-02T06:11:01;36.80;;;22.00;;
68300;SDS011;55146;47.468;18.806;2024-03-02T06:13:26;36.10;;;20.98;;
68300;SDS011;55146;47.468;18.806;2024-03-02T06:15:52;34.27;;;20.63;;
68300;SDS011;55146;47.468;18.806;2024-03-02T06:18:18;40.10;;;21.45;;
68300;SDS011;55146;47.468;18.806;2024-03-02T06:20:43;38.37;;;21.43;;
68300;SDS011;55146;47.468;18.806;2024-03-02T06:23:08;38.17;;;21.73;;
68300;SDS011;55146;47.468;18.806;2024-03-02T06:25:34;36.37;;;21.67;;
68300;SDS011;55146;47.468;18.806;2024-03-02T06:27:59;39.73;;;22.23;;
68300;SDS011;55146;47.468;18.806;2024-03-02T06:30:24;37.87;;;21.23;;
68300;SDS011;55146;47.468;18.806;2024-03-02T06:32:50;45.57;;;23.90;;
68300;SDS011;55146;47.468;18.806;2024-03-02T06:35:15;40.20;;;21.62;;
68300;SDS011;55146;47.468;18.806;2024-03-02T06:37:40;38.00;;;21.53;;
68300;SDS011;55146;47.468;18.806;2024-03-02T06:40:06;36.27;;;20.93;;
68300;SDS011;55146;47.468;18.806;2024-03-02T06:42:35;38.55;;;23.30;;
68300;SDS011;55146;47.468;18.806;2024-03-02T06:45:01;42.03;;;22.00;;
68300;SDS011;55146;47.468;18.806;2024-03-02T06:47:27;41.28;;;21.83;;
68300;SDS011;55146;47.468;18.806;2024-03-02T06:49:52;36.23;;;20.90;;
68300;SDS011;55146;47.468;18.806;2024-03-02T06:52:18;36.87;;;22.00;;
68300;SDS011;55146;47.468;18.806;2024-03-02T06:54:43;46.50;;;22.97;;
68300;SDS011;55146;47.468;18.806;2024-03-02T06:57:09;34.85;;;21.45;;
68300;SDS011;55146;47.468;18.806;2024-03-02T06:59:35;38.67;;;22.73;;
68300;SDS011;55146;47.468;18.806;2024-03-02T07:02:00;38.07;;;22.23;;
68300;SDS011;55146;47.468;18.806;2024-03-02T07:04:26;42.85;;;23.10;;
68300;SDS011;55146;47.468;18.806;2024-03-02T07:06:52;39.70;;;21.93;;
68300;SDS011;55146;47.468;18.806;2024-03-02T07:09:17;36.92;;;20.35;;
68300;SDS011;55146;47.468;18.806;2024-03-02T07:11:42;37.47;;;22.00;;
68300;SDS011;55146;47.468;18.806;2024-03-02T07:14:08;44.00;;;23.07;;
68300;SDS011;55146;47.468;18.806;2024-03-02T07:16:33;38.57;;;21.83;;
68300;SDS011;55146;47.468;18.806;2024-03-02T07:18:59;39.38;;;21.83;;
68300;SDS011;55146;47.468;18.806;2024-03-02T07:21:26;39.00;;;21.30;;
68300;SDS011;55146;47.468;18.806;2024-03-02T07:23:52;41.13;;;22.52;;
68300;SDS011;55146;47.468;18.806;2024-03-02T07:26:17;43.53;;;23.20;;
68300;SDS011;55146;47.468;18.806;2024-03-02T07:28:43;40.00;;;24.80;;
68300;SDS011;55146;47.468;18.806;2024-03-02T07:31:11;40.65;;;23.02;;
68300;SDS011;55146;47.468;18.806;2024-03-02T07:33:36;42.27;;;22.50;;
68300;SDS011;55146;47.468;18.806;2024-03-02T07:36:01;44.53;;;23.30;;
68300;SDS011;55146;47.468;18.806;2024-03-02T07:38:28;39.70;;;22.52;;
68300;SDS011;55146;47.468;18.806;2024-03-02T07:40:53;43.22;;;22.77;;
68300;SDS011;55146;47.468;18.806;2024-03-02T07:43:20;40.83;;;23.00;;
68300;SDS011;55146;47.468;18.806;2024-03-02T07:45:46;39.47;;;22.70;;
68300;SDS011;55146;47.468;18.806;2024-03-02T07:48:12;40.25;;;23.92;;
68300;SDS011;55146;47.468;18.806;2024-03-02T07:50:37;40.07;;;23.77;;
68300;SDS011;55146;47.468;18.806;2024-03-02T07:53:04;39.40;;;22.30;;
68300;SDS011;55146;47.468;18.806;2024-03-02T07:55:30;42.50;;;24.95;;
68300;SDS011;55146;47.468;18.806;2024-03-02T07:57:55;40.03;;;23.20;;
68300;SDS011;55146;47.468;18.806;2024-03-02T08:00:22;40.28;;;22.98;;
68300;SDS011;55146;47.468;18.806;2024-03-02T08:02:48;40.12;;;22.55;;
68300;SDS011;55146;47.468;18.806;2024-03-02T08:05:13;43.90;;;24.23;;
68300;SDS011;55146;47.468;18.806;2024-03-02T08:07:39;37.85;;;22.77;;
68300;SDS011;55146;47.468;18.806;2024-03-02T08:10:05;39.73;;;22.30;;
68300;SDS011;55146;47.468;18.806;2024-03-02T08:12:30;43.65;;;23.25;;
68300;SDS011;55146;47.468;18.806;2024-03-02T08:14:56;39.43;;;23.27;;
68300;SDS011;55146;47.468;18.806;2024-03-02T08:17:21;43.43;;;23.43;;
68300;SDS011;55146;47.468;18.806;2024-03-02T08:19:47;46.93;;;24.10;;
68300;SDS011;55146;47.468;18.806;2024-03-02T08:22:13;36.78;;;22.58;;
68300;SDS011;55146;47.468;18.806;2024-03-02T08:24:40;38.05;;;21.85;;
68300;SDS011;55146;47.468;18.806;2024-03-02T08:27:05;38.40;;;21.70;;
68300;SDS011;55146;47.468;18.806;2024-03-02T08:29:31;37.95;;;21.48;;
68300;SDS011;55146;47.468;18.806;2024-03-02T08:31:56;39.93;;;20.97;;
68300;SDS011;55146;47.468;18.806;2024-03-02T08:34:21;38.80;;;22.40;;
68300;SDS011;55146;47.468;18.806;2024-03-02T08:36:47;40.77;;;22.53;;
68300;SDS011;55146;47.468;18.806;2024-03-02T08:39:12;33.58;;;20.92;;
68300;SDS011;55146;47.468;18.806;2024-03-02T08:41:49;38.57;;;21.87;;
68300;SDS011;55146;47.468;18.806;2024-03-02T08:44:14;40.30;;;21.90;;
68300;SDS011;55146;47.468;18.806;2024-03-02T08:46:40;37.65;;;20.92;;
68300;SDS011;55146;47.468;18.806;2024-03-02T08:49:06;37.30;;;22.40;;
68300;SDS011;55146;47.468;18.806;2024-03-02T08:51:31;36.22;;;19.73;;
68300;SDS011;55146;47.468;18.806;2024-03-02T08:53:57;36.20;;;20.70;;
68300;SDS011;55146;47.468;18.806;2024-03-02T08:56:23;34.60;;;20.17;;
68300;SDS011;55146;47.468;18.806;2024-03-02T08:58:49;36.53;;;21.00;;
68300;SDS011;55146;47.468;18.806;2024-03-02T09:01:15;36.78;;;21.02;;
68300;SDS011;55146;47.468;18.806;2024-03-02T09:03:42;38.38;;;22.02;;
68300;SDS011;55146;47.468;18.806;2024-03-02T09:06:11;35.72;;;20.98;;
68300;SDS011;55146;47.468;18.806;2024-03-02T09:08:37;38.10;;;22.65;;
68300;SDS011;55146;47.468;18.806;2024-03-02T09:11:03;39.93;;;21.43;;
68300;SDS011;55146;47.468;18.806;2024-03-02T09:13:30;33.95;;;20.90;;
68300;SDS011;55146;47.468;18.806;2024-03-02T09:15:56;37.80;;;22.00;;
68300;SDS011;55146;47.468;18.806;2024-03-02T09:18:21;37.13;;;21.63;;
68300;SDS011;55146;47.468;18.806;2024-03-02T09:20:47;34.17;;;20.00;;
68300;SDS011;55146;47.468;18.806;2024-03-02T09:23:12;31.97;;;20.07;;
68300;SDS011;55146;47.468;18.806;2024-03-02T09:25:37;32.03;;;18.67;;
68300;SDS011;55146;47.468;18.806;2024-03-02T09:28:03;33.23;;;19.80;;
68300;SDS011;55146;47.468;18.806;2024-03-02T09:30:28;30.95;;;18.77;;
68300;SDS011;55146;47.468;18.806;2024-03-02T09:32:54;34.30;;;19.67;;
68300;SDS011;55146;47.468;18.806;2024-03-02T09:35:19;30.70;;;19.77;;
68300;SDS011;55146;47.468;18.806;2024-03-02T09:37:45;30.83;;;18.73;;
68300;SDS011;55146;47.468;18.806;2024-03-02T09:40:10;36.67;;;21.00;;
68300;SDS011;55146;47.468;18.806;2024-03-02T09:42:36;31.20;;;19.83;;
68300;SDS011;55146;47.468;18.806;2024-03-02T09:45:02;35.30;;;19.27;;
68300;SDS011;55146;47.468;18.806;2024-03-02T09:47:28;27.95;;;17.73;;
68300;SDS011;55146;47.468;18.806;2024-03-02T09:49:54;34.30;;;18.10;;
68300;SDS011;55146;47.468;18.806;2024-03-02T09:52:20;29.23;;;18.10;;
68300;SDS011;55146;47.468;18.806;2024-03-02T09:54:47;35.78;;;18.12;;
68300;SDS011;55146;47.468;18.806;2024-03-02T09:57:13;30.25;;;17.73;;
68300;SDS011;55146;47.468;18.806;2024-03-02T09:59:39;29.37;;;16.80;;
68300;SDS011;55146;47.468;18.806;2024-03-02T10:02:04;30.57;;;17.57;;
68300;SDS011;55146;47.468;18.806;2024-03-02T10:04:32;27.93;;;17.30;;
68300;SDS011;55146;47.468;18.806;2024-03-02T10:07:14;28.58;;;16.87;;
68300;SDS011;55146;47.468;18.806;2024-03-02T10:09:41;25.90;;;15.65;;
68300;SDS011;55146;47.468;18.806;2024-03-02T10:12:07;32.20;;;17.73;;
68300;SDS011;55146;47.468;18.806;2024-03-02T10:14:34;29.50;;;19.10;;
68300;SDS011;55146;47.468;18.806;2024-03-02T10:17:03;27.57;;;16.80;;
68300;SDS011;55146;47.468;18.806;2024-03-02T10:19:32;26.52;;;15.25;;
68300;SDS011;55146;47.468;18.806;2024-03-02T10:21:59;28.80;;;16.12;;
68300;SDS011;55146;47.468;18.806;2024-03-02T10:24:27;27.30;;;15.40;;
68300;SDS011;55146;47.468;18.806;2024-03-02T10:26:53;26.45;;;15.48;;
68300;SDS011;55146;47.468;18.806;2024-03-02T10:29:19;25.33;;;15.80;;
68300;SDS011;55146;47.468;18.806;2024-03-02T10:31:45;27.45;;;16.87;;
68300;SDS011;55146;47.468;18.806;2024-03-02T10:34:11;25.00;;;15.10;;
68300;SDS011;55146;47.468;18.806;2024-03-02T10:36:37;25.08;;;15.85;;
68300;SDS011;55146;47.468;18.806;2024-03-02T10:39:06;24.77;;;15.40;;
68300;SDS011;55146;47.468;18.806;2024-03-02T10:41:37;24.65;;;14.85;;
68300;SDS011;55146;47.468;18.806;2024-03-02T10:44:04;28.45;;;16.85;;
68300;SDS011;55146;47.468;18.806;2024-03-02T10:46:31;27.93;;;17.60;;
68300;SDS011;55146;47.468;18.806;2024-03-02T10:48:58;28.02;;;17.33;;
68300;SDS011;55146;47.468;18.806;2024-03-02T10:51:28;26.10;;;16.48;;
68300;SDS011;55146;47.468;18.806;2024-03-02T10:53:58;26.67;;;15.25;;
68300;SDS011;55146;47.468;18.806;2024-03-02T10:56:32;20.40;;;14.70;;
68300;SDS011;55146;47.468;18.806;2024-03-02T10:59:28;20.13;;;12.50;;
68300;SDS011;55146;47.468;18.806;2024-03-02T11:01:57;23.00;;;14.52;;
68300;SDS011;55146;47.468;18.806;2024-03-02T11:04:24;23.45;;;14.25;;
68300;SDS011;55146;47.468;18.806;2024-03-02T11:06:58;20.95;;;13.30;;
68300;SDS011;55146;47.468;18.806;2024-03-02T11:09:28;19.05;;;11.95;;
68300;SDS011;55146;47.468;18.806;2024-03-02T11:14:43;17.87;;;11.40;;
68300;SDS011;55146;47.468;18.806;2024-03-02T11:17:08;19.87;;;12.47;;
68300;SDS011;55146;47.468;18.806;2024-03-02T11:19:35;19.37;;;12.17;;
68300;SDS011;55146;47.468;18.806;2024-03-02T11:22:04;17.33;;;11.73;;
68300;SDS011;55146;47.468;18.806;2024-03-02T11:24:30;19.55;;;12.50;;
68300;SDS011;55146;47.468;18.806;2024-03-02T11:27:00;21.07;;;11.37;;
68300;SDS011;55146;47.468;18.806;2024-03-02T11:32:01;21.33;;;14.60;;
68300;SDS011;55146;47.468;18.806;2024-03-02T11:34:33;18.55;;;12.93;;
68300;SDS011;55146;47.468;18.806;2024-03-02T11:37:03;17.27;;;11.85;;
68300;SDS011;55146;47.468;18.806;2024-03-02T11:39:29;17.90;;;11.10;;
68300;SDS011;55146;47.468;18.806;2024-03-02T11:41:56;19.23;;;12.10;;
68300;SDS011;55146;47.468;18.806;2024-03-02T11:44:22;19.35;;;12.43;;
68300;SDS011;55146;47.468;18.806;2024-03-02T11:46:59;15.23;;;10.10;;
68300;SDS011;55146;47.468;18.806;2024-03-02T11:49:44;16.70;;;10.52;;
68300;SDS011;55146;47.468;18.806;2024-03-02T11:52:11;16.93;;;10.60;;
68300;SDS011;55146;47.468;18.806;2024-03-02T11:54:43;16.85;;;11.15;;
68300;SDS011;55146;47.468;18.806;2024-03-02T11:57:14;16.48;;;11.10;;
68300;SDS011;55146;47.468;18.806;2024-03-02T11:59:41;18.25;;;12.05;;
68300;SDS011;55146;47.468;18.806;2024-03-02T12:02:06;17.23;;;12.07;;
68300;SDS011;55146;47.468;18.806;2024-03-02T12:04:42;16.20;;;10.20;;
68300;SDS011;55146;47.468;18.806;2024-03-02T12:07:08;17.80;;;10.50;;
68300;SDS011;55146;47.468;18.806;2024-03-02T12:09:34;14.57;;;9.77;;
68300;SDS011;55146;47.468;18.806;2024-03-02T12:12:06;16.08;;;10.52;;
68300;SDS011;55146;47.468;18.806;2024-03-02T12:14:33;17.30;;;11.10;;
68300;SDS011;55146;47.468;18.806;2024-03-02T12:16:59;15.50;;;10.47;;
68300;SDS011;55146;47.468;18.806;2024-03-02T12:19:25;15.45;;;9.88;;
68300;SDS011;55146;47.468;18.806;2024-03-02T12:21:52;14.95;;;10.32;;
68300;SDS011;55146;47.468;18.806;2024-03-02T12:24:21;16.10;;;10.63;;
68300;SDS011;55146;47.468;18.806;2024-03-02T12:26:47;12.63;;;9.52;;
68300;SDS011;55146;47.468;18.806;2024-03-02T12:29:16;14.30;;;9.50;;
68300;SDS011;55146;47.468;18.806;2024-03-02T12:31:44;13.88;;;8.82;;
68300;SDS011;55146;47.468;18.806;2024-03-02T12:34:16;11.63;;;8.52;;
68300;SDS011;55146;47.468;18.806;2024-03-02T12:36:42;11.80;;;7.17;;
68300;SDS011;55146;47.468;18.806;2024-03-02T12:39:08;12.10;;;8.27;;
68300;SDS011;55146;47.468;18.806;2024-03-02T12:41:37;13.27;;;9.07;;
68300;SDS011;55146;47.468;18.806;2024-03-02T12:44:06;13.30;;;9.27;;
68300;SDS011;55146;47.468;18.806;2024-03-02T12:46:32;14.27;;;9.43;;
68300;SDS011;55146;47.468;18.806;2024-03-02T12:48:58;11.57;;;8.17;;
68300;SDS011;55146;47.468;18.806;2024-03-02T12:51:26;13.65;;;9.10;;
68300;SDS011;55146;47.468;18.806;2024-03-02T12:53:55;13.67;;;9.40;;
68300;SDS011;55146;47.468;18.806;2024-03-02T12:56:21;12.95;;;9.00;;
68300;SDS011;55146;47.468;18.806;2024-03-02T12:58:47;16.87;;;11.57;;
68300;SDS011;55146;47.468;18.806;2024-03-02T13:01:14;15.20;;;11.60;;
68300;SDS011;55146;47.468;18.806;2024-03-02T13:03:40;17.58;;;11.90;;
68300;SDS011;55146;47.468;18.806;2024-03-02T13:06:06;15.18;;;10.10;;
68300;SDS011;55146;47.468;18.806;2024-03-02T13:08:32;15.73;;;10.52;;
68300;SDS011;55146;47.468;18.806;2024-03-02T13:10:58;18.48;;;10.40;;
68300;SDS011;55146;47.468;18.806;2024-03-02T13:13:24;14.23;;;9.80;;
68300;SDS011;55146;47.468;18.806;2024-03-02T13:15:49;15.07;;;9.70;;
68300;SDS011;55146;47.468;18.806;2024-03-02T13:18:17;14.90;;;10.67;;
68300;SDS011;55146;47.468;18.806;2024-03-02T13:20:43;15.93;;;10.95;;
68300;SDS011;55146;47.468;18.806;2024-03-02T13:23:08;16.17;;;10.80;;
68300;SDS011;55146;47.468;18.806;2024-03-02T13:25:35;16.95;;;10.93;;
68300;SDS011;55146;47.468;18.806;2024-03-02T13:28:00;18.07;;;11.30;;
68300;SDS011;55146;47.468;18.806;2024-03-02T13:30:26;16.55;;;11.57;;
68300;SDS011;55146;47.468;18.806;2024-03-02T13:32:51;18.87;;;12.10;;
68300;SDS011;55146;47.468;18.806;2024-03-02T13:35:18;16.17;;;11.25;;
68300;SDS011;55146;47.468;18.806;2024-03-02T13:37:43;17.60;;;12.23;;
68300;SDS011;55146;47.468;18.806;2024-03-02T13:40:09;21.40;;;14.20;;
68300;SDS011;55146;47.468;18.806;2024-03-02T13:42:39;20.12;;;13.07;;
68300;SDS011;55146;47.468;18.806;2024-03-02T13:45:05;19.90;;;13.00;;
68300;SDS011;55146;47.468;18.806;2024-03-02T13:47:31;24.80;;;14.00;;
68300;SDS011;55146;47.468;18.806;2024-03-02T13:49:57;22.87;;;14.45;;
68300;SDS011;55146;47.468;18.806;2024-03-02T13:52:23;22.63;;;13.67;;
68300;SDS011;55146;47.468;18.806;2024-03-02T13:54:50;20.92;;;13.60;;
68300;SDS011;55146;47.468;18.806;2024-03-02T13:57:17;20.17;;;12.80;;
68300;SDS011;55146;47.468;18.806;2024-03-02T13:59:44;20.33;;;14.35;;
68300;SDS011;55146;47.468;18.806;2024-03-02T14:02:10;22.00;;;14.37;;
68300;SDS011;55146;47.468;18.806;2024-03-02T14:04:37;22.75;;;12.40;;
68300;SDS011;55146;47.468;18.806;2024-03-02T14:07:04;22.98;;;14.60;;
68300;SDS011;55146;47.468;18.806;2024-03-02T14:09:32;23.00;;;14.45;;
68300;SDS011;55146;47.468;18.806;2024-03-02T14:11:57;22.73;;;14.63;;